Time;durP1;ratioP1;P1;durP2;ratioP2;P2;SDS_P1;SDS_P2;PMS_P1;PMS_P2;Temp;Humidity;BMP_temperature;BMP_pressure;BME280_temperature;BME280_humidity;BME280_pressure;Samples;Min_cycle;Max_cycle;Signal;HPM_P1;HPM_P2
2022/04/12 00:00:17;;;;;;;15.98;8.55;;;;;;;7.75;100.00;101178.09;2614014;36;21106;-52
2022/04/12 00:02:45;;;;;;;13.82;8.70;;;;;;;7.66;100.00;101172.41;2612825;36;20141;-57
2022/04/12 00:05:16;;;;;;;12.93;7.97;;;;;;;7.59;100.00;101172.97;2613859;36;20038;-56
2022/04/12 00:07:45;;;;;;;13.18;8.60;;;;;;;7.63;100.00;101164.59;2613450;36;20018;-53
2022/04/12 00:10:15;;;;;;;12.27;8.60;;;;;;;7.64;100.00;101165.44;2613496;36;20775;-55
2022/04/12 00:12:44;;;;;;;15.63;9.15;;;;;;;7.52;100.00;101159.13;2613725;36;20041;-49
2022/04/12 00:15:13;;;;;;;14.68;8.65;;;;;;;7.60;100.00;101158.63;2614472;36;20645;-54
2022/04/12 00:20:26;;;;;;;11.27;7.80;;;;;;;7.66;100.00;101153.66;2612851;31;20047;-51
2022/04/12 00:22:55;;;;;;;13.68;7.78;;;;;;;7.66;100.00;101148.31;2614899;36;20434;-54
2022/04/12 00:25:23;;;;;;;12.93;8.13;;;;;;;7.60;100.00;101138.03;2613810;36;20161;-54
2022/04/12 00:27:53;;;;;;;12.90;8.20;;;;;;;7.50;100.00;101132.47;2614979;36;20462;-54
2022/04/12 00:30:22;;;;;;;12.93;8.43;;;;;;;7.50;100.00;101129.78;2614686;31;20544;-53
2022/04/12 00:32:52;;;;;;;11.55;8.27;;;;;;;7.37;100.00;101132.47;2613358;36;20646;-48
2022/04/12 00:35:20;;;;;;;;;;;;;;;7.41;100.00;101122.41;2615005;36;20045;-54
2022/04/12 00:37:52;;;;;;;12.63;8.30;;;;;;;7.46;100.00;101114.06;2614610;36;20001;-55
2022/04/12 00:40:24;;;;;;;10.57;7.68;;;;;;;7.45;100.00;101101.63;2613566;31;20034;-52
2022/04/12 00:42:53;;;;;;;12.38;8.43;;;;;;;7.52;100.00;101113.59;2613688;36;20333;-53
2022/04/12 00:45:21;;;;;;;13.57;7.30;;;;;;;7.43;100.00;101109.78;2615116;36;20541;-50
2022/04/12 00:47:50;;;;;;;11.50;7.97;;;;;;;7.42;100.00;101097.38;2613997;36;20155;-50
2022/04/12 00:50:18;;;;;;;9.93;7.68;;;;;;;7.46;100.00;101098.84;2614113;36;20042;-53
2022/04/12 00:52:49;;;;;;;15.73;7.83;;;;;;;7.48;100.00;101096.91;2613743;36;20030;-54
2022/04/12 00:55:21;;;;;;;11.80;6.97;;;;;;;7.58;100.00;101091.72;2613742;36;20034;-51
2022/04/12 00:57:51;;;;;;;10.15;7.28;;;;;;;7.59;100.00;101088.09;2613825;36;20030;-53
2022/04/12 01:00:20;;;;;;;13.63;8.68;;;;;;;7.56;100.00;101088.31;2613355;36;20023;-51
2022/04/12 01:02:49;;;;;;;11.52;7.22;;;;;;;7.57;100.00;101100.75;2614203;36;20041;-51
2022/04/12 01:05:17;;;;;;;11.77;7.85;;;;;;;7.45;100.00;101102.50;2614293;36;20114;-55
2022/04/12 01:07:46;;;;;;;12.57;7.38;;;;;;;7.57;100.00;101102.56;2614307;36;20447;-54
2022/04/12 01:10:15;;;;;;;12.85;8.50;;;;;;;7.47;100.00;101102.38;2613853;36;20160;-57
2022/04/12 01:12:48;;;;;;;10.30;7.45;;;;;;;7.45;100.00;101101.63;2614361;36;20023;-52
2022/04/12 01:15:18;;;;;;;11.15;7.60;;;;;;;7.40;100.00;101115.34;2615391;36;20446;-51
2022/04/12 01:17:47;;;;;;;12.20;7.90;;;;;;;7.40;100.00;101114.50;2613085;36;20069;-55
2022/04/12 01:20:17;;;;;;;9.20;7.43;;;;;;;7.42;100.00;101109.88;2615030;36;20924;-50
2022/04/12 01:22:53;;;;;;;10.48;7.68;;;;;;;7.27;100.00;101107.31;2613126;36;20162;-50
2022/04/12 01:25:25;;;;;;;8.98;6.88;;;;;;;7.25;100.00;101106.59;2614316;36;20030;-51
2022/04/12 01:27:54;;;;;;;10.32;7.80;;;;;;;7.26;100.00;101112.78;2614080;36;20081;-53
2022/04/12 01:30:22;;;;;;;10.68;7.05;;;;;;;7.36;100.00;101128.13;2613284;36;20130;-50
2022/04/12 01:32:50;;;;;;;9.80;7.25;;;;;;;7.26;100.00;101118.13;2614172;36;21416;-54
2022/04/12 01:35:18;;;;;;;10.15;7.10;;;;;;;7.28;100.00;101117.06;2614667;36;20081;-50
2022/04/12 01:37:46;;;;;;;12.02;7.70;;;;;;;7.23;100.00;101105.84;2614750;36;20085;-52
2022/04/12 01:40:15;;;;;;;12.70;7.18;;;;;;;7.25;100.00;101111.94;2614961;31;20523;-55
2022/04/12 01:42:46;;;;;;;9.23;6.85;;;;;;;7.21;100.00;101104.25;2614018;36;20376;-52
2022/04/12 01:45:14;;;;;;;10.00;7.18;;;;;;;7.35;100.00;101102.28;2613929;36;20038;-49
2022/04/12 01:47:43;;;;;;;9.15;6.07;;;;;;;7.37;100.00;101097.66;2613565;36;20122;-50
2022/04/12 01:50:11;;;;;;;10.63;6.90;;;;;;;7.31;100.00;101100.78;2613201;31;20633;-53
2022/04/12 01:52:40;;;;;;;9.23;7.38;;;;;;;7.27;100.00;101099.28;2613059;36;20130;-49
2022/04/12 01:55:10;;;;;;;13.57;7.33;;;;;;;7.23;100.00;101102.28;2613782;31;20038;-52
2022/04/12 01:57:38;;;;;;;10.43;6.85;;;;;;;7.25;100.00;101095.03;2614260;31;20066;-51
2022/04/12 02:00:10;;;;;;;12.77;7.10;;;;;;;7.14;100.00;101098.44;2614274;36;20510;-49
2022/04/12 02:02:39;;;;;;;9.52;6.90;;;;;;;7.20;100.00;101108.75;2613897;36;20085;-54
2022/04/12 02:05:08;;;;;;;9.65;7.15;;;;;;;7.26;100.00;101113.66;2613898;36;20511;-56
2022/04/12 02:07:36;;;;;;;12.43;7.35;;;;;;;7.28;100.00;101109.03;2613400;31;20034;-53
2022/04/12 02:10:05;;;;;;;10.52;7.20;;;;;;;7.32;100.00;101113.22;2613745;36;20122;-52
2022/04/12 02:12:33;;;;;;;12.57;7.07;;;;;;;7.25;100.00;101106.59;2614073;36;20178;-51
2022/04/12 02:15:02;;;;;;;10.15;6.43;;;;;;;7.24;100.00;101099.50;2613276;36;20054;-49
2022/04/12 02:17:32;;;;;;;11.18;6.50;;;;;;;7.36;100.00;101095.09;2613088;36;20158;-49
2022/04/12 02:20:01;;;;;;;9.90;6.47;;;;;;;7.44;100.00;101083.88;2614825;36;20511;-54
2022/04/12 02:22:29;;;;;;;10.50;7.03;;;;;;;7.41;100.00;101097.47;2613341;31;20097;-53
2022/04/12 02:24:57;;;;;;;11.00;6.88;;;;;;;7.34;100.00;101087.19;2613813;36;20610;-53
2022/04/12 02:27:25;;;;;;;9.55;6.65;;;;;;;7.33;100.00;101084.63;2612192;36;20069;-53
2022/04/12 02:29:54;;;;;;;11.00;6.68;;;;;;;7.35;100.00;101080.88;2613955;36;20129;-52
2022/04/12 02:32:22;;;;;;;10.13;6.72;;;;;;;7.34;100.00;101084.50;2614011;36;20085;-50
2022/04/12 02:34:52;;;;;;;8.50;6.63;;;;;;;7.32;100.00;101078.41;2613497;36;20121;-51
2022/04/12 02:37:21;;;;;;;9.93;6.70;;;;;;;7.33;100.00;101074.78;2613066;36;20603;-54
2022/04/12 02:39:49;;;;;;;10.38;6.50;;;;;;;7.29;100.00;101069.75;2614653;36;20165;-52
2022/04/12 02:42:17;;;;;;;9.07;6.43;;;;;;;7.18;100.00;101067.81;2613701;36;20126;-52
2022/04/12 02:44:45;;;;;;;13.10;7.32;;;;;;;7.25;100.00;101063.75;2614242;36;20107;-56
2022/04/12 02:47:14;;;;;;;10.30;7.10;;;;;;;7.22;100.00;101063.97;2613484;36;20137;-50
2022/04/12 02:49:42;;;;;;;10.25;6.60;;;;;;;7.24;100.00;101071.88;2614163;36;20065;-50
2022/04/12 02:52:13;;;;;;;9.93;6.60;;;;;;;7.20;100.00;101071.25;2613693;36;20671;-53
2022/04/12 02:54:41;;;;;;;9.20;6.60;;;;;;;7.20;100.00;101063.25;2613625;36;20153;-57
2022/04/12 02:57:10;;;;;;;12.75;7.30;;;;;;;7.16;100.00;101061.75;2614209;36;20046;-55
2022/04/12 02:59:38;;;;;;;8.75;6.22;;;;;;;7.13;100.00;101061.97;2613958;31;20059;-54
2022/04/12 03:02:07;;;;;;;9.33;6.77;;;;;;;7.04;100.00;101059.91;2613759;31;20162;-52
2022/04/12 03:04:35;;;;;;;8.05;6.07;;;;;;;7.04;100.00;101062.59;2613699;36;20089;-53
2022/04/12 03:07:03;;;;;;;11.73;7.30;;;;;;;7.13;100.00;101056.59;2614061;36;20042;-48
2022/04/12 03:09:34;;;;;;;9.68;6.72;;;;;;;7.04;100.00;101060.78;2612338;36;20513;-51
2022/04/12 03:12:04;;;;;;;10.13;7.05;;;;;;;7.05;100.00;101057.13;2614461;36;20053;-54
2022/04/12 03:14:32;;;;;;;10.18;6.90;;;;;;;7.08;100.00;101050.72;2613540;31;20029;-47
2022/04/12 03:17:01;;;;;;;10.70;7.00;;;;;;;7.06;100.00;101055.31;2613788;36;20126;-51
2022/04/12 03:19:29;;;;;;;8.63;6.30;;;;;;;7.11;100.00;101050.47;2614293;36;20129;-51
2022/04/12 03:21:57;;;;;;;10.95;6.85;;;;;;;7.04;100.00;101057.22;2613643;36;20145;-51
2022/04/12 03:24:25;;;;;;;13.40;7.47;;;;;;;6.96;100.00;101058.66;2613155;36;20062;-51
2022/04/12 03:26:56;;;;;;;10.88;6.80;;;;;;;6.95;100.00;101050.72;2614089;36;20085;-49
2022/04/12 03:29:28;;;;;;;8.82;6.70;;;;;;;6.99;100.00;101054.88;2614552;36;20093;-53
2022/04/12 03:31:56;;;;;;;11.07;7.43;;;;;;;7.02;100.00;101046.63;2614042;31;20034;-53
2022/04/12 03:34:25;;;;;;;8.90;6.45;;;;;;;6.99;100.00;101041.50;2613301;36;20042;-53
2022/04/12 03:36:53;;;;;;;9.13;6.53;;;;;;;7.03;100.00;101036.81;2613538;36;20054;-51
2022/04/12 03:39:21;;;;;;;11.82;7.00;;;;;;;6.89;100.00;101040.44;2613591;36;20141;-53
2022/04/12 03:41:51;;;;;;;11.68;6.88;;;;;;;6.86;100.00;101035.31;2613270;36;20129;-48
2022/04/12 03:44:22;;;;;;;11.52;6.85;;;;;;;6.79;100.00;101032.22;2613200;36;20034;-56
2022/04/12 03:46:50;;;;;;;8.23;6.82;;;;;;;6.84;100.00;101022.03;2613762;36;20023;-53
2022/04/12 03:49:18;;;;;;;9.00;6.07;;;;;;;6.95;100.00;101024.81;2613809;36;20145;-52
2022/04/12 03:51:47;;;;;;;7.95;6.22;;;;;;;6.99;100.00;101026.31;2613824;36;20061;-53
2022/04/12 03:54:15;;;;;;;8.98;6.32;;;;;;;7.01;100.00;101029.72;2612912;36;20577;-53
2022/04/12 03:56:44;;;;;;;10.98;6.45;;;;;;;7.08;100.00;101034.66;2614285;36;20125;-53
2022/04/12 03:59:12;;;;;;;8.68;6.32;;;;;;;7.11;100.00;101029.06;2612706;31;20041;-52
2022/04/12 04:01:43;;;;;;;8.63;6.15;;;;;;;7.06;100.00;101036.59;2612764;36;20030;-53
2022/04/12 04:04:12;;;;;;;9.90;7.00;;;;;;;6.94;100.00;101027.59;2612416;36;20551;-49
2022/04/12 04:06:40;;;;;;;9.40;6.88;;;;;;;6.90;100.00;101028.78;2613915;31;20449;-53
2022/04/12 04:09:08;;;;;;;9.63;6.77;;;;;;;6.98;100.00;101018.41;2613448;31;20724;-51
2022/04/12 04:11:38;;;;;;;9.40;6.38;;;;;;;6.93;100.00;101026.72;2612611;36;20053;-48
2022/04/12 04:14:06;;;;;;;10.38;7.28;;;;;;;6.97;100.00;101032.75;2613389;36;20682;-52
2022/04/12 04:16:35;;;;;;;11.40;6.50;;;;;;;6.95;100.00;101032.84;2613418;36;20618;-52
2022/04/12 04:19:08;;;;;;;12.07;6.63;;;;;;;6.86;100.00;101022.81;2613611;36;20023;-52
2022/04/12 04:21:37;;;;;;;10.10;7.00;;;;;;;6.84;100.00;101030.06;2613296;36;20042;-54
2022/04/12 04:24:06;;;;;;;10.48;7.03;;;;;;;6.90;100.00;101020.75;2613526;36;20533;-50
2022/04/12 04:26:34;;;;;;;8.40;6.20;;;;;;;6.92;100.00;101027.72;2612840;36;20126;-50
2022/04/12 04:29:03;;;;;;;11.40;6.93;;;;;;;6.88;100.00;101026.22;2614760;31;20511;-50
2022/04/12 04:31:31;;;;;;;8.23;6.13;;;;;;;6.98;100.00;101013.91;2614219;36;20086;-52
2022/04/12 04:33:59;;;;;;;9.90;6.65;;;;;;;6.91;100.00;101012.63;2613566;36;20034;-50
2022/04/12 04:36:30;;;;;;;8.93;6.78;;;;;;;6.87;100.00;101015.63;2614042;36;20039;-51
2022/04/12 04:38:58;;;;;;;8.18;6.32;;;;;;;6.89;100.00;101013.69;2614390;36;20121;-48
2022/04/12 04:41:27;;;;;;;10.00;7.40;;;;;;;6.84;100.00;101016.69;2613441;36;20950;-51
2022/04/12 04:43:55;;;;;;;9.50;6.90;;;;;;;6.89;100.00;101019.91;2612600;36;20035;-56
2022/04/12 04:46:24;;;;;;;9.18;6.82;;;;;;;6.90;100.00;101010.91;2612142;36;20172;-47
2022/04/12 04:48:52;;;;;;;10.75;6.68;;;;;;;6.96;100.00;101012.28;2612124;36;20569;-54
2022/04/12 04:51:20;;;;;;;9.65;6.88;;;;;;;6.96;100.00;101013.16;2613036;36;20595;-53
2022/04/12 04:53:58;;;;;;;11.43;6.72;;;;;;;7.00;100.00;101014.63;2611063;31;20118;-52
2022/04/12 04:56:26;;;;;;;9.07;6.53;;;;;;;7.08;100.00;101013.22;2613733;36;20046;-52
2022/04/12 04:58:55;;;;;;;11.00;7.07;;;;;;;7.07;100.00;101011.53;2613997;36;20189;-50
2022/04/12 05:01:23;;;;;;;10.93;6.27;;;;;;;7.03;100.00;101015.41;2613350;36;21159;-53
2022/04/12 05:03:52;;;;;;;11.50;6.65;;;;;;;7.01;100.00;101013.69;2614321;36;20425;-52
2022/04/12 05:06:21;;;;;;;10.63;6.32;;;;;;;7.10;100.00;101014.00;2613624;36;20034;-55
2022/04/12 05:08:52;;;;;;;9.30;7.10;;;;;;;7.16;100.00;101018.91;2613602;36;20030;-49
2022/04/12 05:11:20;;;;;;;9.98;6.72;;;;;;;7.12;100.00;101012.06;2614712;36;20035;-53
2022/04/12 05:13:48;;;;;;;10.48;7.07;;;;;;;7.05;100.00;101025.00;2613077;36;20628;-54
2022/04/12 05:16:16;;;;;;;11.32;7.07;;;;;;;7.11;100.00;101035.31;2613608;36;20043;-50
2022/04/12 05:18:44;;;;;;;11.98;7.57;;;;;;;7.09;100.00;101031.00;2614107;31;20567;-51
2022/04/12 05:21:13;;;;;;;9.93;6.90;;;;;;;7.13;100.00;101027.16;2613948;36;20038;-52
2022/04/12 05:23:41;;;;;;;9.63;6.80;;;;;;;7.17;100.00;101037.53;2613308;36;20067;-55
2022/04/12 05:26:12;;;;;;;9.43;6.50;;;;;;;7.19;100.00;101040.09;2610580;31;20532;-52
2022/04/12 05:28:40;;;;;;;10.98;6.97;;;;;;;7.22;100.00;101041.72;2613689;36;20121;-52
2022/04/12 05:31:09;;;;;;;9.88;6.82;;;;;;;7.29;100.00;101041.16;2610080;31;20138;-53
2022/04/12 05:33:37;;;;;;;10.98;7.28;;;;;;;7.25;100.00;101039.66;2612175;36;20038;-52
2022/04/12 05:36:06;;;;;;;8.63;7.05;;;;;;;7.24;100.00;101043.28;2611617;36;20545;-52
2022/04/12 05:38:34;;;;;;;13.32;7.40;;;;;;;7.21;100.00;101040.84;2610537;36;20171;-53
2022/04/12 05:41:02;;;;;;;9.90;6.63;;;;;;;7.28;100.00;101049.28;2607481;36;20836;-52
2022/04/12 05:43:33;;;;;;;9.32;7.28;;;;;;;7.25;100.00;101047.69;2613861;36;20106;-50
2022/04/12 05:46:01;;;;;;;10.13;7.20;;;;;;;7.19;100.00;101040.09;2612781;36;20081;-52
2022/04/12 05:48:29;;;;;;;11.55;6.85;;;;;;;7.25;100.00;101045.00;2611988;36;20037;-51
2022/04/12 05:50:57;;;;;;;11.30;8.02;;;;;;;7.19;100.00;101043.63;2613016;36;20034;-52
2022/04/12 05:53:26;;;;;;;9.60;6.43;;;;;;;7.28;100.00;101030.56;2611481;36;20062;-52
2022/04/12 05:55:54;;;;;;;11.50;7.28;;;;;;;7.21;100.00;101035.47;2613995;36;20030;-54
2022/04/12 05:58:22;;;;;;;12.95;7.20;;;;;;;7.23;100.00;101044.28;2611905;36;20155;-52
2022/04/12 06:00:53;;;;;;;8.63;7.18;;;;;;;7.24;100.00;101035.25;2592769;36;20037;-54
2022/04/12 06:03:21;;;;;;;8.93;7.03;;;;;;;7.28;100.00;101028.72;2605038;36;20636;-55
2022/04/12 06:05:49;;;;;;;10.13;6.85;;;;;;;7.43;100.00;101034.78;2613812;36;20038;-52
2022/04/12 06:08:17;;;;;;;10.55;7.18;;;;;;;7.46;100.00;101026.53;2613188;36;20114;-51
2022/04/12 06:10:46;;;;;;;11.45;7.15;;;;;;;7.54;100.00;101029.50;2613263;36;20114;-52
2022/04/12 06:13:14;;;;;;;10.18;7.70;;;;;;;7.70;100.00;101039.97;2613561;36;20127;-52
2022/04/12 06:15:42;;;;;;;10.07;7.25;;;;;;;7.83;100.00;101031.88;2612977;36;20038;-54
2022/04/12 06:18:13;;;;;;;11.13;7.43;;;;;;;8.05;100.00;101031.13;2613554;36;20125;-53
2022/04/12 06:20:42;;;;;;;10.65;6.85;;;;;;;8.15;100.00;101027.75;2614450;36;20126;-54
2022/04/12 06:23:11;;;;;;;8.98;7.07;;;;;;;8.18;100.00;101036.38;2612123;36;20042;-52
2022/04/12 06:25:39;;;;;;;12.40;7.47;;;;;;;8.10;100.00;101044.19;2614203;36;20486;-53
2022/04/12 06:28:08;;;;;;;8.63;7.20;;;;;;;8.14;100.00;101042.09;2612764;31;20125;-52
2022/04/12 06:30:36;;;;;;;10.05;6.80;;;;;;;8.19;100.00;101037.25;2612765;36;20542;-53
2022/04/12 06:33:04;;;;;;;12.13;7.15;;;;;;;8.28;100.00;101047.28;2611846;36;20174;-51
2022/04/12 06:35:35;;;;;;;10.27;7.22;;;;;;;8.39;100.00;101046.44;2611411;36;20137;-52
2022/04/12 06:38:05;;;;;;;10.95;7.22;;;;;;;8.34;100.00;101046.81;2612721;36;20142;-52
2022/04/12 06:40:34;;;;;;;10.13;6.93;;;;;;;8.34;100.00;101046.81;2613255;36;20699;-53
2022/04/12 06:43:02;;;;;;;;;;;;;;;8.60;100.00;101035.94;2613542;36;20609;-55
2022/04/12 06:45:31;;;;;;;10.45;7.28;;;;;;;8.56;100.00;101031.78;2613341;36;20490;-54
2022/04/12 06:48:01;;;;;;;9.27;7.05;;;;;;;8.56;100.00;101029.09;2613259;36;20465;-53
2022/04/12 06:50:30;;;;;;;14.13;7.78;;;;;;;8.68;100.00;101021.94;2612873;31;20133;-51
2022/04/12 06:53:03;;;;;;;11.02;7.43;;;;;;;8.93;100.00;101020.84;2613626;31;20158;-53
2022/04/12 06:55:31;;;;;;;10.32;7.15;;;;;;;9.17;100.00;101022.56;2613496;36;20023;-51
2022/04/12 06:58:00;;;;;;;11.93;6.83;;;;;;;9.12;100.00;101025.63;2613953;36;20153;-53
2022/04/12 07:00:28;;;;;;;11.27;7.35;;;;;;;9.19;100.00;101031.38;2612352;31;20506;-52
2022/04/12 07:02:56;;;;;;;10.18;6.90;;;;;;;9.28;100.00;101036.81;2604624;36;20038;-51
2022/04/12 07:05:25;;;;;;;9.15;6.60;;;;;;;9.47;100.00;101029.97;2611193;36;20129;-55
2022/04/12 07:07:54;;;;;;;10.85;7.78;;;;;;;9.62;100.00;101017.97;2613238;31;20464;-52
2022/04/12 07:10:25;;;;;;;9.95;6.68;;;;;;;9.84;100.00;101021.56;2612371;36;20027;-54
2022/04/12 07:12:55;;;;;;;10.05;7.07;;;;;;;9.98;100.00;101012.34;2613363;36;20503;-54
2022/04/12 07:15:23;;;;;;;10.70;6.93;;;;;;;10.14;100.00;101018.16;2613074;36;20426;-51
2022/04/12 07:17:51;;;;;;;14.35;7.35;;;;;;;10.27;100.00;101017.13;2612943;36;20157;-55
2022/04/12 07:20:20;;;;;;;10.93;7.07;;;;;;;10.44;100.00;101027.31;2612757;31;20684;-52
2022/04/12 07:22:48;;;;;;;11.65;6.95;;;;;;;10.69;100.00;101022.53;2613196;36;20641;-55
2022/04/12 07:25:17;;;;;;;9.60;6.88;;;;;;;10.78;100.00;101013.66;2611622;31;20137;-50
2022/04/12 07:27:48;;;;;;;10.90;6.75;;;;;;;10.86;100.00;101011.16;2613280;36;20574;-53
2022/04/12 07:30:17;;;;;;;9.82;7.25;;;;;;;11.01;100.00;101021.53;2612920;31;20165;-50
2022/04/12 07:32:45;;;;;;;11.15;7.25;;;;;;;11.20;100.00;101010.00;2613668;36;20046;-55
2022/04/12 07:35:13;;;;;;;9.60;6.80;;;;;;;11.49;100.00;101003.84;2612933;36;20172;-54
2022/04/12 07:37:44;;;;;;;9.35;6.22;;;;;;;11.46;100.00;100999.56;2613326;36;20041;-55
2022/04/12 07:40:14;;;;;;;8.40;6.85;;;;;;;11.57;100.00;101001.28;2612450;36;20170;-52
2022/04/12 07:42:42;;;;;;;11.05;6.53;;;;;;;11.72;100.00;100994.50;2612967;36;20593;-54
2022/04/12 07:45:13;;;;;;;13.20;7.22;;;;;;;11.80;100.00;100993.81;2612333;36;20527;-52
2022/04/12 07:47:42;;;;;;;11.07;6.55;;;;;;;11.80;100.00;100991.09;2613716;31;20383;-55
2022/04/12 07:50:12;;;;;;;8.70;6.68;;;;;;;11.97;100.00;100992.28;2613000;36;20113;-52
2022/04/12 07:52:41;;;;;;;8.57;6.20;;;;;;;12.22;100.00;100995.38;2612904;31;20479;-51
2022/04/12 07:55:10;;;;;;;11.25;6.60;;;;;;;12.31;100.00;100983.75;2613573;36;20030;-51
2022/04/12 07:57:41;;;;;;;11.05;6.40;;;;;;;12.27;100.00;100980.47;2609447;36;20133;-55
2022/04/12 08:00:14;;;;;;;9.30;6.60;;;;;;;12.41;100.00;100987.28;2612922;36;20042;-56
2022/04/12 08:02:42;;;;;;;13.32;7.03;;;;;;;12.42;100.00;100980.88;2610486;36;20192;-53
2022/04/12 08:05:11;;;;;;;8.68;6.30;;;;;;;12.77;100.00;100975.81;2612493;36;20125;-50
2022/04/12 08:07:44;;;;;;;9.63;6.72;;;;;;;12.88;100.00;100974.75;2603703;36;20113;-54
2022/04/12 08:10:13;;;;;;;9.73;6.43;;;;;;;13.03;100.00;100989.50;2613027;36;20031;-54
2022/04/12 08:12:41;;;;;;;8.55;6.15;;;;;;;13.24;100.00;100994.66;2612037;36;20506;-56
2022/04/12 08:15:10;;;;;;;13.20;7.50;;;;;;;13.43;100.00;101006.41;2606682;36;20150;-54
2022/04/12 08:17:42;;;;;;;12.32;6.28;;;;;;;13.48;89.36;100994.09;2612250;36;20038;-57
2022/04/12 08:20:13;;;;;;;11.48;6.70;;;;;;;13.52;98.72;101007.34;2613231;36;20638;-53
2022/04/12 08:22:42;;;;;;;9.00;6.25;;;;;;;13.25;91.90;101006.31;2609906;36;20034;-54
2022/04/12 08:25:11;;;;;;;14.10;6.55;;;;;;;13.38;94.23;101003.28;2613309;36;20105;-52
2022/04/12 08:27:40;;;;;;;11.85;6.78;;;;;;;13.57;94.40;101008.56;2614111;31;20499;-57
2022/04/12 08:30:09;;;;;;;9.77;6.38;;;;;;;13.41;95.43;101000.28;2612673;36;20709;-56
2022/04/12 08:32:40;;;;;;;10.45;6.60;;;;;;;13.37;100.00;101001.59;2613104;36;20118;-55
2022/04/12 08:35:10;;;;;;;8.70;6.30;;;;;;;13.47;96.25;100992.44;2613673;36;20646;-55
2022/04/12 08:37:39;;;;;;;8.15;5.88;;;;;;;13.69;92.73;100992.13;2612690;36;20030;-49
2022/04/12 08:40:09;;;;;;;9.25;6.28;;;;;;;13.95;100.00;100984.13;2613094;36;20134;-55
2022/04/12 08:42:38;;;;;;;10.35;6.40;;;;;;;14.08;92.90;100987.28;2613531;36;20034;-55
2022/04/12 08:45:08;;;;;;;11.15;6.05;;;;;;;14.19;96.16;100988.88;2613345;36;20646;-54
2022/04/12 08:47:37;;;;;;;9.07;6.60;;;;;;;14.29;90.33;100977.97;2613816;36;20113;-55
2022/04/12 08:50:10;;;;;;;9.70;6.30;;;;;;;14.29;90.54;100969.84;2613899;36;20085;-54
2022/04/12 08:52:39;;;;;;;10.85;6.00;;;;;;;14.39;100.00;100972.47;2613554;36;20138;-53
2022/04/12 08:55:09;;;;;;;8.88;5.68;;;;;;;14.67;95.23;100968.59;2614209;36;20471;-55
2022/04/12 08:57:37;;;;;;;8.93;6.25;;;;;;;14.75;84.17;100972.38;2605097;36;20057;-54
2022/04/12 09:00:08;;;;;;;6.38;5.25;;;;;;;14.92;100.00;100981.44;2614193;36;20130;-54
2022/04/12 09:02:36;;;;;;;8.90;5.90;;;;;;;14.81;81.13;100975.31;2611719;36;20070;-53
2022/04/12 09:05:06;;;;;;;9.63;5.97;;;;;;;14.82;87.10;100976.13;2612413;36;20601;-53
2022/04/12 09:07:47;;;;;;;8.13;5.68;;;;;;;14.82;88.78;100970.72;2613367;36;20454;-57
2022/04/12 09:10:16;;;;;;;13.90;6.53;;;;;;;14.89;82.24;100975.31;2613064;36;20041;-54
2022/04/12 09:12:44;;;;;;;10.50;5.78;;;;;;;15.01;93.82;100973.19;2612454;36;20023;-54
2022/04/12 09:15:14;;;;;;;8.77;6.22;;;;;;;15.35;83.96;100979.59;2606645;36;21095;-57
2022/04/12 09:17:44;;;;;;;8.77;5.60;;;;;;;15.74;85.95;100965.44;2614231;31;20184;-55
2022/04/12 09:20:16;;;;;;;20.23;6.88;;;;;;;15.71;81.92;100965.78;2613734;36;20034;-52
2022/04/12 09:22:48;;;;;;;8.60;5.38;;;;;;;15.64;85.05;100953.91;2605812;36;20037;-53
2022/04/12 09:25:18;;;;;;;7.60;5.28;;;;;;;15.88;83.66;100950.38;2613465;36;20582;-56
2022/04/12 09:27:49;;;;;;;10.15;5.95;;;;;;;15.92;91.12;100947.16;2613849;36;20112;-53
2022/04/12 09:30:18;;;;;;;9.45;5.60;;;;;;;16.04;79.06;100944.94;2613538;31;20041;-51
2022/04/12 09:32:49;;;;;;;6.78;5.18;;;;;;;16.45;74.78;100935.94;2613941;31;20521;-55
2022/04/12 09:35:18;;;;;;;8.85;5.40;;;;;;;16.73;80.91;100938.22;2614039;36;20031;-51
2022/04/12 09:37:49;;;;;;;10.63;6.00;;;;;;;16.61;71.07;100937.75;2612545;36;20034;-54
2022/04/12 09:40:19;;;;;;;10.27;5.93;;;;;;;16.71;72.23;100941.13;2613071;36;20150;-55
2022/04/12 09:42:50;;;;;;;7.15;5.40;;;;;;;16.89;74.46;100942.81;2613078;36;20042;-56
2022/04/12 09:45:22;;;;;;;8.40;5.38;;;;;;;16.97;78.25;100956.34;2613467;36;20053;-53
2022/04/12 09:47:52;;;;;;;7.97;5.10;;;;;;;17.01;73.37;100940.53;2613030;36;20034;-56
2022/04/12 09:50:22;;;;;;;9.05;5.75;;;;;;;17.09;72.88;100941.34;2612676;36;20138;-56
2022/04/12 09:52:59;;;;;;;8.77;5.55;;;;;;;17.26;72.48;100933.13;2612240;36;20038;-57
2022/04/12 09:55:38;;;;;;;6.70;4.43;;;;;;;17.42;71.75;100933.00;2612735;36;20173;-55
2022/04/12 09:58:08;;;;;;;7.32;5.10;;;;;;;17.27;68.08;100913.91;2612542;36;20042;-56
2022/04/12 10:00:39;;;;;;;9.32;4.60;;;;;;;17.36;67.15;100916.53;2613224;36;20590;-55
2022/04/12 10:03:09;;;;;;;6.85;4.15;;;;;;;17.71;78.02;100925.16;2610621;36;20042;-57
2022/04/12 10:05:38;;;;;;;8.80;4.18;;;;;;;17.68;71.11;100921.78;2613475;36;20650;-56
2022/04/12 10:08:10;;;;;;;;;;;;;;;18.05;64.22;100922.03;2612236;36;20181;-54
2022/04/12 10:10:39;;;;;;;6.25;3.40;;;;;;;17.97;64.46;100914.75;2612414;36;19954;-55
2022/04/12 10:13:07;;;;;;;6.30;3.75;;;;;;;18.31;60.28;100910.69;2612932;36;20149;-56
2022/04/12 10:15:36;;;;;;;7.63;3.25;;;;;;;18.38;62.86;100905.38;2612160;36;20122;-52
2022/04/12 10:18:04;;;;;;;5.65;3.13;;;;;;;18.58;66.74;100905.66;2612399;36;20054;-56
2022/04/12 10:20:33;;;;;;;5.82;3.38;;;;;;;18.88;61.33;100906.50;2611631;31;20125;-50
2022/04/12 10:23:02;;;;;;;6.90;2.80;;;;;;;18.71;63.99;100905.84;2606033;36;20166;-55
2022/04/12 10:25:33;;;;;;;;;;;;;;;18.69;61.15;100896.16;2612945;36;20597;-54
2022/04/12 10:28:03;;;;;;;6.00;3.15;;;;;;;18.75;60.81;100903.59;2612115;36;19954;-54
2022/04/12 10:30:32;;;;;;;6.40;3.22;;;;;;;18.88;63.79;100909.25;2606577;36;20050;-56
2022/04/12 10:33:02;;;;;;;7.88;3.03;;;;;;;19.03;59.32;100906.50;2610563;36;20141;-52
2022/04/12 10:35:45;;;;;;;6.63;3.10;;;;;;;19.16;63.20;100904.97;2609486;36;20077;-54
2022/04/12 10:38:15;;;;;;;3.90;2.88;;;;;;;19.05;63.11;100900.84;2644878;36;20072;-52
2022/04/12 10:40:51;;;;;;;5.55;3.13;;;;;;;18.93;60.89;100905.09;2629597;31;20717;-56
2022/04/12 10:43:25;;;;;;;5.60;2.75;;;;;;;18.75;59.05;100900.84;2613182;36;20045;-56
2022/04/12 10:45:59;;;;;;;5.70;3.08;;;;;;;19.05;59.35;100896.25;2612450;31;20443;-57
2022/04/12 10:48:30;;;;;;;4.65;2.97;;;;;;;19.49;58.45;100891.69;2610741;36;20129;-56
2022/04/12 10:51:01;;;;;;;6.78;3.47;;;;;;;19.61;57.69;100884.69;2613985;31;20090;-53
2022/04/12 10:53:58;;;;;;;4.82;2.97;;;;;;;19.74;56.78;100877.63;2610273;36;20122;-58
2022/04/12 10:56:29;;;;;;;5.07;2.88;;;;;;;19.72;63.38;100875.09;2610965;31;20431;-57
2022/04/12 10:58:57;;;;;;;5.85;3.40;;;;;;;19.91;58.63;100865.44;2612847;36;20042;-55
2022/04/12 11:01:35;;;;;;;6.00;3.30;;;;;;;19.92;56.72;100860.78;2609423;36;20201;-54
2022/04/12 11:04:04;;;;;;;5.30;3.25;;;;;;;19.64;59.74;100860.75;2612893;36;20356;-55
2022/04/12 11:06:34;;;;;;;5.22;2.63;;;;;;;20.15;60.58;100863.28;2611055;31;20514;-53
2022/04/12 11:09:16;;;;;;;5.88;3.28;;;;;;;20.41;59.91;100854.44;2608857;36;20072;-53
2022/04/12 11:11:58;;;;;;;4.63;3.30;;;;;;;20.28;56.48;100862.53;2610424;36;20042;-54
2022/04/12 11:14:29;;;;;;;4.93;2.67;;;;;;;20.15;57.25;100857.81;2611582;36;20061;-54
2022/04/12 11:17:01;;;;;;;4.32;2.72;;;;;;;20.35;59.75;100846.19;2611489;36;20455;-55
2022/04/12 11:19:30;;;;;;;6.18;3.00;;;;;;;20.49;58.82;100853.41;2610952;36;20526;-57
2022/04/12 11:22:02;;;;;;;4.07;2.55;;;;;;;20.71;54.47;100862.38;2610829;36;20038;-52
2022/04/12 11:24:30;;;;;;;7.07;3.38;;;;;;;20.55;56.57;100862.69;2612835;36;20073;-55
2022/04/12 11:27:11;;;;;;;7.60;3.30;;;;;;;20.27;58.14;100856.25;2609766;31;20188;-55
2022/04/12 11:29:41;;;;;;;4.30;3.35;;;;;;;20.30;59.08;100854.97;2604196;36;20912;-54
2022/04/12 11:32:11;;;;;;;7.60;3.15;;;;;;;20.35;56.19;100846.19;2609699;31;20137;-58
2022/04/12 11:34:40;;;;;;;4.47;2.90;;;;;;;19.76;59.65;100840.91;2604223;36;20129;-55